Archival Weather

Chandler Muni

Chandler, Arizona (KCHD)

Report from: Wednesday, December 6, 2023 3:47 PM MST
Current time: Wednesday, April 24, 2024 11:46 AM MST

Current weather – Weather history – Daily summaries
Weather forecast

Temperature28.0°C (82.4°F)
Heat index26.8°C (80.2°F)
Dew point-1.0°C (30.2°F)
Winds Calm
Visibility10 mi. (16.1 km)
Clouds Sky clear
Altimeter29.99 in.Hg (1016 mB)
Relative humidity15 %
Density altitude1,511 ft. (460 m)
Flight conditions Visual Meteorological Conditions
Raw dataKCHD 062247Z 00000KT 10SM CLR 28/M01 A2999
An error has occurred. This application may no longer respond until reloaded. Reload 🗙